Blessing Sw — 3FIP7 — position and weather

sailwx.info

Track history (hours):
 
Tides and Currents Weather Stations Pressure Air Temp Water Temp Dewpoint Dewpoint Depression Visibility Wind Speed Wind Dir Waves Ship Positions

Blessing Sw

Last reported at 2018-Jul-13 09:34 UTC. Time now 2018-Jul-22 07:06 UTC.
Position N 01°20' E 104°23'.
Warning: this ship's position is 8 days out of date.

Length 171 m; draft 5.5 m.

Type: Cargo ship. MMSI: 372085000.

Date/timePositionNaut miles runAvg speedWind from/ knotsBaromVisibWave heightAir tempDewpointWater temp
2018-Jul-13 09:34N 01°20' E 104°23'312.0
2018-Jul-13 09:16N 01°18' E 104°20'512.0
2018-Jul-13 08:50N 01°17' E 104°15'412.6
2018-Jul-13 08:30N 01°16' E 104°10'712.6
2018-Jul-13 07:59N 01°15' E 104°04'612.3
2018-Jul-13 07:30N 01°14' E 103°58'4 7.5
2018-Jul-13 06:59N 01°15' E 103°54'2 3.4
2018-Jul-13 06:26N 01°16' E 103°53'0 0.0
2018-Jul-13 05:58N 01°16' E 103°53'0 0.1
2018-Jul-13 05:28N 01°16' E 103°53'0 0.0
2018-Jul-13 04:59N 01°16' E 103°53'0 0.0
2018-Jul-13 04:28N 01°16' E 103°53'0 0.0
2018-Jul-13 03:56N 01°16' E 103°53'0 0.0
2018-Jul-13 03:29N 01°16' E 103°53'0 0.2
2018-Jul-13 02:59N 01°16' E 103°53'0 0.0
2018-Jul-13 02:25N 01°16' E 103°53'0 0.0
2018-Jul-13 01:59N 01°16' E 103°53'0 0.1
2018-Jul-13 01:20N 01°16' E 103°53'0 0.0
2018-Jul-13 00:55N 01°16' E 103°53'0 0.0
2018-Jul-13 00:25N 01°16' E 103°53'0 0.0
2018-Jul-12 23:55N 01°16' E 103°53'0 0.0
2018-Jul-12 23:29N 01°16' E 103°53'0 0.1
2018-Jul-12 22:55N 01°16' E 103°53'0 0.1
2018-Jul-12 22:29N 01°16' E 103°53'1 2.8
2018-Jul-12 22:00N 01°16' E 103°54'4 7.2
2018-Jul-12 21:30N 01°16' E 103°57'3 5.4
2018-Jul-12 21:00N 01°14' E 103°56'2 4.3
2018-Jul-12 20:30N 01°13' E 103°54'3 5.7
2018-Jul-12 19:59N 01°11' E 103°51'2 5.0
2018-Jul-12 19:30N 01°10' E 103°49'3 5.6
2018-Jul-12 18:59N 01°09' E 103°47'3 6.1
2018-Jul-12 18:30N 01°07' E 103°45'3 5.6
2018-Jul-12 18:00N 01°05' E 103°42'3 6.8
2018-Jul-12 17:30N 01°03' E 103°40'3 5.4
2018-Jul-12 17:00N 01°04' E 103°37'3 6.4
2018-Jul-12 16:31N 01°06' E 103°34'3 6.3
2018-Jul-12 16:00N 01°07' E 103°31'4 8.3
2018-Jul-12 15:30N 01°09' E 103°28'612.2
2018-Jul-12 14:59N 01°13' E 103°23'612.5
2018-Jul-12 14:30N 01°17' E 103°18'  
2018-Jul-06 18:36N 01°27' E 103°12'212.0
2018-Jul-06 18:24N 01°25' E 103°14'712.3
2018-Jul-06 17:48N 01°20' E 103°19'412.4
2018-Jul-06 17:30N 01°17' E 103°22'612.5
2018-Jul-06 16:59N 01°14' E 103°27'612.5
2018-Jul-06 16:31N 01°12' E 103°33'713.2
2018-Jul-06 16:00N 01°11' E 103°40'611.5
2018-Jul-06 15:30N 01°09' E 103°45'611.2
2018-Jul-06 14:59N 01°11' E 103°50'5 9.5
2018-Jul-06 14:30N 01°13' E 103°54'3 6.3
2018-Jul-06 13:59N 01°17' E 103°54'0 0.3
2018-Jul-06 13:29N 01°17' E 103°54'0 0.0
2018-Jul-06 12:59N 01°17' E 103°54'0 0.0
2018-Jul-06 12:26N 01°17' E 103°54'0 0.0
2018-Jul-06 11:56N 01°17' E 103°54'0 0.0
2018-Jul-06 11:23N 01°17' E 103°54'0 0.0
2018-Jul-06 10:38N 01°17' E 103°54'0 0.0
2018-Jul-06 10:17N 01°17' E 103°54'0 0.0
2018-Jul-06 09:59N 01°17' E 103°54'0 0.0
2018-Jul-06 09:23N 01°17' E 103°54'0 0.0
2018-Jul-06 08:44N 01°17' E 103°54'0 0.0
2018-Jul-06 08:23N 01°17' E 103°54'0 0.0
2018-Jul-06 07:53N 01°17' E 103°54'0 0.0
2018-Jul-06 07:23N 01°17' E 103°54'0 0.0
2018-Jul-06 06:47N 01°17' E 103°54'0 0.2
2018-Jul-06 06:27N 01°17' E 103°54'2 5.1
2018-Jul-06 06:00N 01°14' E 103°53'1 2.8
2018-Jul-06 05:30N 01°14' E 103°55'3 6.4
2018-Jul-06 04:59N 01°15' E 103°58'510.6
2018-Jul-06 04:31N 01°16' E 104°03'610.8
2018-Jul-06 03:59N 01°17' E 104°09'5 9.5
2018-Jul-06 03:30N 01°18' E 104°13'5 9.7
2018-Jul-06 02:58N 01°19' E 104°18'510.2
2018-Jul-06 02:28N 01°22' E 104°22'  
Track history (hours):
 
Tides and Currents Weather Stations Pressure Air Temp Water Temp Dewpoint Dewpoint Depression Visibility Wind Speed Wind Dir Waves Ship Positions

Blessing Sw

Last reported at 2018-Jul-13 09:34 UTC. Time now 2018-Jul-22 07:06 UTC.
Position N 01°20' E 104°23'.
Warning: this ship's position is 8 days out of date.

Length 171 m; draft 5.5 m.

Type: Cargo ship. MMSI: 372085000.

Date/timePositionNaut miles runAvg speedWind from/ knotsBaromVisibWave heightAir tempDewpointWater temp
2018-Jul-13 09:34N 01°20' E 104°23'312.0
2018-Jul-13 09:16N 01°18' E 104°20'512.0
2018-Jul-13 08:50N 01°17' E 104°15'412.6
2018-Jul-13 08:30N 01°16' E 104°10'712.6
2018-Jul-13 07:59N 01°15' E 104°04'612.3
2018-Jul-13 07:30N 01°14' E 103°58'4 7.5
2018-Jul-13 06:59N 01°15' E 103°54'2 3.4
2018-Jul-13 06:26N 01°16' E 103°53'0 0.0
2018-Jul-13 05:58N 01°16' E 103°53'0 0.1
2018-Jul-13 05:28N 01°16' E 103°53'0 0.0
2018-Jul-13 04:59N 01°16' E 103°53'0 0.0
2018-Jul-13 04:28N 01°16' E 103°53'0 0.0
2018-Jul-13 03:56N 01°16' E 103°53'0 0.0
2018-Jul-13 03:29N 01°16' E 103°53'0 0.2
2018-Jul-13 02:59N 01°16' E 103°53'0 0.0
2018-Jul-13 02:25N 01°16' E 103°53'0 0.0
2018-Jul-13 01:59N 01°16' E 103°53'0 0.1
2018-Jul-13 01:20N 01°16' E 103°53'0 0.0
2018-Jul-13 00:55N 01°16' E 103°53'0 0.0
2018-Jul-13 00:25N 01°16' E 103°53'0 0.0
2018-Jul-12 23:55N 01°16' E 103°53'0 0.0
2018-Jul-12 23:29N 01°16' E 103°53'0 0.1
2018-Jul-12 22:55N 01°16' E 103°53'0 0.1
2018-Jul-12 22:29N 01°16' E 103°53'1 2.8
2018-Jul-12 22:00N 01°16' E 103°54'4 7.2
2018-Jul-12 21:30N 01°16' E 103°57'3 5.4
2018-Jul-12 21:00N 01°14' E 103°56'2 4.3
2018-Jul-12 20:30N 01°13' E 103°54'3 5.7
2018-Jul-12 19:59N 01°11' E 103°51'2 5.0
2018-Jul-12 19:30N 01°10' E 103°49'3 5.6
2018-Jul-12 18:59N 01°09' E 103°47'3 6.1
2018-Jul-12 18:30N 01°07' E 103°45'3 5.6
2018-Jul-12 18:00N 01°05' E 103°42'3 6.8
2018-Jul-12 17:30N 01°03' E 103°40'3 5.4
2018-Jul-12 17:00N 01°04' E 103°37'3 6.4
2018-Jul-12 16:31N 01°06' E 103°34'3 6.3
2018-Jul-12 16:00N 01°07' E 103°31'4 8.3
2018-Jul-12 15:30N 01°09' E 103°28'612.2
2018-Jul-12 14:59N 01°13' E 103°23'612.5
2018-Jul-12 14:30N 01°17' E 103°18'  
2018-Jul-06 18:36N 01°27' E 103°12'212.0
2018-Jul-06 18:24N 01°25' E 103°14'712.3
2018-Jul-06 17:48N 01°20' E 103°19'412.4
2018-Jul-06 17:30N 01°17' E 103°22'612.5
2018-Jul-06 16:59N 01°14' E 103°27'612.5
2018-Jul-06 16:31N 01°12' E 103°33'713.2
2018-Jul-06 16:00N 01°11' E 103°40'611.5
2018-Jul-06 15:30N 01°09' E 103°45'611.2
2018-Jul-06 14:59N 01°11' E 103°50'5 9.5
2018-Jul-06 14:30N 01°13' E 103°54'3 6.3
2018-Jul-06 13:59N 01°17' E 103°54'0 0.3
2018-Jul-06 13:29N 01°17' E 103°54'0 0.0
2018-Jul-06 12:59N 01°17' E 103°54'0 0.0
2018-Jul-06 12:26N 01°17' E 103°54'0 0.0
2018-Jul-06 11:56N 01°17' E 103°54'0 0.0
2018-Jul-06 11:23N 01°17' E 103°54'0 0.0
2018-Jul-06 10:38N 01°17' E 103°54'0 0.0
2018-Jul-06 10:17N 01°17' E 103°54'0 0.0
2018-Jul-06 09:59N 01°17' E 103°54'0 0.0
2018-Jul-06 09:23N 01°17' E 103°54'0 0.0
2018-Jul-06 08:44N 01°17' E 103°54'0 0.0
2018-Jul-06 08:23N 01°17' E 103°54'0 0.0
2018-Jul-06 07:53N 01°17' E 103°54'0 0.0
2018-Jul-06 07:23N 01°17' E 103°54'0 0.0
2018-Jul-06 06:47N 01°17' E 103°54'0 0.2
2018-Jul-06 06:27N 01°17' E 103°54'2 5.1
2018-Jul-06 06:00N 01°14' E 103°53'1 2.8
2018-Jul-06 05:30N 01°14' E 103°55'3 6.4
2018-Jul-06 04:59N 01°15' E 103°58'510.6
2018-Jul-06 04:31N 01°16' E 104°03'610.8
2018-Jul-06 03:59N 01°17' E 104°09'5 9.5
2018-Jul-06 03:30N 01°18' E 104°13'5 9.7
2018-Jul-06 02:58N 01°19' E 104°18'510.2
2018-Jul-06 02:28N 01°22' E 104°22'  

Dump ship's entire track history